Quick Links (Output Below):   Max & Min Temps   /   Climate Reports   /   Zone Forecasts
River Forecasts   /   Forestry Forecasts   /   Aviation Forecasts   /   Radars   /   Features

Terminal Aerodrome Forecast (El Dorado)

Pick a Site:
Arkadelphia | El Dorado | Fayetteville | Fort Smith | Harrison | Highfill | Hot Springs | Jonesboro
Little Rock | Monticello | Mountain Home | Pine Bluff | Texarkana

KELD 041140Z 0412/0512 33005KT P6SM OVC024
     FM041500 36011KT P6SM OVC025
     FM041700 36013G19KT P6SM FEW025 OVC035
     FM050100 35004KT P6SM BKN040=

 Latest METARs (Observations) 
How to Decode METARs
12Z KELD 041153Z AUTO 33005KT 10SM OVC020 11/08 A2999 RMK AO2 SLP154
         T01060083 10106 20089 53013
11Z KELD 041053Z AUTO 33005KT 10SM OVC024 10/08 A2997 RMK AO2 SLP147
10Z KELD 040953Z AUTO 35004KT 10SM OVC027 10/08 A2996 RMK AO2 SLP141
09Z KELD 040853Z AUTO 34005KT 10SM CLR 09/07 A2995 RMK AO2 SLP141
         T00890072 55007
08Z KELD 040753Z AUTO 34005KT 10SM CLR 09/07 A2995 RMK AO2 SLP140
07Z KELD 040653Z AUTO 34004KT 10SM CLR 09/07 A2996 RMK AO2 SLP143
06Z KELD 040553Z AUTO 34005KT 10SM CLR 10/07 A2997 RMK AO2 SLP148
         T01000072 10189 20100 402440100 53005
05Z KELD 040453Z AUTO 01005KT 10SM CLR 11/08 A2996 RMK AO2 SLP145
04Z KELD 040353Z AUTO 01004KT 10SM CLR 12/08 A2996 RMK AO2 SLP144
03Z KELD 040253Z AUTO 02004KT 10SM CLR 13/08 A2996 RMK AO2 SLP143
         T01330083 51022
***** Today's Observations (Above) *****

Back to Main Page

USA.gov is the U.S. government's official web portal to all federal, state and local government web resources and services.